Sitka Rocky Gutierrez, AK

12:48 AM AKDT on July 31, 2014 (GMT -0800)
Sitka Rocky Gutierrez (PASI) Elev 20 ft | 57.05 °N, 135.36 °W | Change Station

Current weather conditions updated 55 minutes ago

Scattered Clouds
Scattered Clouds
55 °F
Feels Like 55 °F
N
5
Wind Variable Wind from NNE

Today is forecast to be Warmer than yesterday.

Today
High -- | Low -- °F
--% Chance of Precip.
Yesterday
High -- | Low -- °F
Precip. -- in
4:58 AM 9:15 PM
Waxing Crescent, 17% visible
Pressure 30.31 in
Visibility 10.0 miles
Clouds Scattered Clouds 2400 ft
Dew Point 53 °F
Humidity 93%
Rainfall 0.08 in
Snow Depth Not available.
UV 0 out of 12
Pollen Not available.
Air Quality Not available.
Flu Activity Not available.
METAR PASI 310753Z 02004KT 10SM SCT024 13/12 A3031 RMK AO2 SLP263 T01280117

More Conditions Fewer Conditions

Pressure 30.31 in
Visibility 10.0 miles
Clouds Scattered Clouds 2400 ft
Dew Point 53 °F
Humidity 93%
Rainfall 0.08 in
Snow Depth Not available.
UV 0 out of 12
Pollen Not available.
Air Quality Not available.
Flu Activity Not available.
METAR PASI 310753Z 02004KT 10SM SCT024 13/12 A3031 RMK AO2 SLP263 T01280117

More Conditions Fewer Conditions

10-Day Weather Forecast

Almanac

Astronomy

Jul. 31, 2014 Rise Set
Actual Time 4:58 AM AKDT 9:15 PM AKDT
Civil Twilight 4:07 AM AKDT 10:06 PM AKDT
Nautical Twilight 2:45 AM AKDT 11:26 PM AKDT
Astronomical Twilight Sun does not rise Sun does not rise
Moon 10:39 AM AKDT 10:21 PM AKDT
Length of Visible Light 17h 59m
Length of Day
16h 17m
Tomorrow will be 4m 4s shorter.
Waxing Crescent, 17% of the Moon is Illuminated
Today
Waxing Crescent
Aug 3
First Quarter
Aug 10
Full
Aug 17
Last Quarter
Aug 25
New

Today's Extremes

State Highs State Lows

Community

WunderPhotos

Upload Photos

1,739,258 photos uploaded!

Nearby

Snow Depth

Station Depth Elevation
Long Lake 0 in 820 ft
Upper Tsaina River 0 in 1750 ft
Moraine 0 in 2100 ft
Grandview 1 in 1100 ft
Grouse Creek Divide 0 in 700 ft

Earthquake Activity

City Distance Mag. Time & Date
No recent earthquake activity has been reported nearby.
Minimum magnitude displayed is 2.5.

Coastal Water Temperatures

Place Temperature
No Stations Reporting

Nearby Weather Stations

Station Location Temp. Dew Point Humidity Wind Precip. Elev Updated Type
HADS TAKATZ C NR BARANOF AK , Sitka, AK 50 °F - - North  at  - 0.00 in / hr 227 ft 11:00 PM AKDT MADIS

Show More Stations Show Fewer Stations